sensor_id;sensor_type;location;lat;lon;timestamp;temperature;humidity
51029;DHT22;37054;52.054;8.600;2024-02-04T00:00:13;12.80;70.40
51029;DHT22;37054;52.054;8.600;2024-02-04T00:02:40;12.80;71.00
51029;DHT22;37054;52.054;8.600;2024-02-04T00:05:05;12.90;71.30
51029;DHT22;37054;52.054;8.600;2024-02-04T00:07:31;13.00;71.50
51029;DHT22;37054;52.054;8.600;2024-02-04T00:09:57;13.00;71.30
51029;DHT22;37054;52.054;8.600;2024-02-04T00:12:22;13.00;71.00
51029;DHT22;37054;52.054;8.600;2024-02-04T00:14:48;13.00;70.90
51029;DHT22;37054;52.054;8.600;2024-02-04T00:17:15;13.00;71.00
51029;DHT22;37054;52.054;8.600;2024-02-04T00:19:42;13.00;71.10
51029;DHT22;37054;52.054;8.600;2024-02-04T00:22:07;13.10;71.40
51029;DHT22;37054;52.054;8.600;2024-02-04T00:24:33;13.10;71.40
51029;DHT22;37054;52.054;8.600;2024-02-04T00:26:58;13.20;71.40
51029;DHT22;37054;52.054;8.600;2024-02-04T00:29:24;13.20;71.40
51029;DHT22;37054;52.054;8.600;2024-02-04T00:31:49;13.20;71.40
51029;DHT22;37054;52.054;8.600;2024-02-04T00:34:15;13.20;71.50
51029;DHT22;37054;52.054;8.600;2024-02-04T00:36:41;13.20;71.50
51029;DHT22;37054;52.054;8.600;2024-02-04T00:39:07;13.30;71.50
51029;DHT22;37054;52.054;8.600;2024-02-04T00:41:33;13.20;71.60
51029;DHT22;37054;52.054;8.600;2024-02-04T00:43:59;13.30;71.70
51029;DHT22;37054;52.054;8.600;2024-02-04T00:46:25;13.30;71.70
51029;DHT22;37054;52.054;8.600;2024-02-04T00:48:50;13.30;71.70
51029;DHT22;37054;52.054;8.600;2024-02-04T00:51:16;13.30;71.60
51029;DHT22;37054;52.054;8.600;2024-02-04T00:53:45;13.30;71.70
51029;DHT22;37054;52.054;8.600;2024-02-04T00:56:11;13.40;71.70
51029;DHT22;37054;52.054;8.600;2024-02-04T00:58:37;13.30;71.70
51029;DHT22;37054;52.054;8.600;2024-02-04T01:01:03;13.40;71.70
51029;DHT22;37054;52.054;8.600;2024-02-04T01:03:28;13.40;71.70
51029;DHT22;37054;52.054;8.600;2024-02-04T01:05:54;13.40;71.80
51029;DHT22;37054;52.054;8.600;2024-02-04T01:08:21;13.40;71.80
51029;DHT22;37054;52.054;8.600;2024-02-04T01:10:47;13.40;71.80
51029;DHT22;37054;52.054;8.600;2024-02-04T01:13:12;13.40;71.80
51029;DHT22;37054;52.054;8.600;2024-02-04T01:15:38;13.50;71.90
51029;DHT22;37054;52.054;8.600;2024-02-04T01:18:03;13.50;71.90
51029;DHT22;37054;52.054;8.600;2024-02-04T01:20:29;13.50;71.90
51029;DHT22;37054;52.054;8.600;2024-02-04T01:22:54;13.60;71.90
51029;DHT22;37054;52.054;8.600;2024-02-04T01:25:20;13.60;71.90
51029;DHT22;37054;52.054;8.600;2024-02-04T01:27:45;13.60;71.90
51029;DHT22;37054;52.054;8.600;2024-02-04T01:30:11;13.70;71.90
51029;DHT22;37054;52.054;8.600;2024-02-04T01:32:37;13.70;71.90
51029;DHT22;37054;52.054;8.600;2024-02-04T01:35:03;13.70;71.90
51029;DHT22;37054;52.054;8.600;2024-02-04T01:37:28;13.70;71.80
51029;DHT22;37054;52.054;8.600;2024-02-04T01:39:54;13.80;71.70
51029;DHT22;37054;52.054;8.600;2024-02-04T01:42:19;13.80;71.70
51029;DHT22;37054;52.054;8.600;2024-02-04T01:44:45;13.80;71.80
51029;DHT22;37054;52.054;8.600;2024-02-04T01:47:10;13.80;71.70
51029;DHT22;37054;52.054;8.600;2024-02-04T01:49:36;13.80;71.80
51029;DHT22;37054;52.054;8.600;2024-02-04T01:52:03;13.80;71.80
51029;DHT22;37054;52.054;8.600;2024-02-04T01:54:31;13.80;71.80
51029;DHT22;37054;52.054;8.600;2024-02-04T01:56:58;13.80;71.80
51029;DHT22;37054;52.054;8.600;2024-02-04T01:59:24;13.80;71.80
51029;DHT22;37054;52.054;8.600;2024-02-04T02:02:01;13.80;71.90
51029;DHT22;37054;52.054;8.600;2024-02-04T02:04:27;13.80;72.00
51029;DHT22;37054;52.054;8.600;2024-02-04T02:06:56;13.80;72.00
51029;DHT22;37054;52.054;8.600;2024-02-04T02:09:21;13.90;71.90
51029;DHT22;37054;52.054;8.600;2024-02-04T02:11:57;13.90;71.90
51029;DHT22;37054;52.054;8.600;2024-02-04T02:14:29;13.80;71.90
51029;DHT22;37054;52.054;8.600;2024-02-04T02:16:57;13.80;71.60
51029;DHT22;37054;52.054;8.600;2024-02-04T02:19:48;13.80;71.80
51029;DHT22;37054;52.054;8.600;2024-02-04T02:22:36;13.80;71.90
51029;DHT22;37054;52.054;8.600;2024-02-04T02:25:03;13.80;71.90
51029;DHT22;37054;52.054;8.600;2024-02-04T02:27:30;13.80;71.80
51029;DHT22;37054;52.054;8.600;2024-02-04T02:29:56;13.80;72.00
51029;DHT22;37054;52.054;8.600;2024-02-04T02:32:21;13.80;72.10
51029;DHT22;37054;52.054;8.600;2024-02-04T02:34:47;13.90;72.10
51029;DHT22;37054;52.054;8.600;2024-02-04T02:40:00;13.90;72.00
51029;DHT22;37054;52.054;8.600;2024-02-04T02:42:26;13.90;71.90
51029;DHT22;37054;52.054;8.600;2024-02-04T02:44:53;13.90;71.90
51029;DHT22;37054;52.054;8.600;2024-02-04T02:47:21;13.90;71.90
51029;DHT22;37054;52.054;8.600;2024-02-04T02:49:47;13.90;71.90
51029;DHT22;37054;52.054;8.600;2024-02-04T02:52:13;13.90;71.80
51029;DHT22;37054;52.054;8.600;2024-02-04T02:54:41;13.90;71.90
51029;DHT22;37054;52.054;8.600;2024-02-04T02:57:06;13.90;71.90
51029;DHT22;37054;52.054;8.600;2024-02-04T02:59:32;13.90;71.80
51029;DHT22;37054;52.054;8.600;2024-02-04T03:01:57;13.90;71.90
51029;DHT22;37054;52.054;8.600;2024-02-04T03:04:23;13.90;71.90
51029;DHT22;37054;52.054;8.600;2024-02-04T03:06:49;13.90;71.90
51029;DHT22;37054;52.054;8.600;2024-02-04T03:09:14;13.90;71.90
51029;DHT22;37054;52.054;8.600;2024-02-04T03:11:40;13.90;71.90
51029;DHT22;37054;52.054;8.600;2024-02-04T03:14:05;13.90;71.80
51029;DHT22;37054;52.054;8.600;2024-02-04T03:16:31;13.90;71.80
51029;DHT22;37054;52.054;8.600;2024-02-04T03:18:56;13.90;71.80
51029;DHT22;37054;52.054;8.600;2024-02-04T03:21:22;13.90;71.80
51029;DHT22;37054;52.054;8.600;2024-02-04T03:23:47;13.80;71.80
51029;DHT22;37054;52.054;8.600;2024-02-04T03:26:17;13.80;71.80
51029;DHT22;37054;52.054;8.600;2024-02-04T03:28:44;13.80;71.80
51029;DHT22;37054;52.054;8.600;2024-02-04T03:31:10;13.80;71.80
51029;DHT22;37054;52.054;8.600;2024-02-04T03:33:35;13.80;71.80
51029;DHT22;37054;52.054;8.600;2024-02-04T03:36:01;13.80;71.70
51029;DHT22;37054;52.054;8.600;2024-02-04T03:38:26;13.80;71.70
51029;DHT22;37054;52.054;8.600;2024-02-04T03:40:52;13.80;71.60
51029;DHT22;37054;52.054;8.600;2024-02-04T03:43:17;13.80;71.30
51029;DHT22;37054;52.054;8.600;2024-02-04T03:45:43;13.60;71.10
51029;DHT22;37054;52.054;8.600;2024-02-04T03:48:08;13.60;70.80
51029;DHT22;37054;52.054;8.600;2024-02-04T03:50:35;13.50;70.60
51029;DHT22;37054;52.054;8.600;2024-02-04T03:53:01;13.40;70.40
51029;DHT22;37054;52.054;8.600;2024-02-04T03:55:26;13.30;70.30
51029;DHT22;37054;52.054;8.600;2024-02-04T03:57:54;13.20;70.20
51029;DHT22;37054;52.054;8.600;2024-02-04T04:00:19;13.20;70.30
51029;DHT22;37054;52.054;8.600;2024-02-04T04:02:45;13.10;70.40
51029;DHT22;37054;52.054;8.600;2024-02-04T04:05:11;13.10;70.60
51029;DHT22;37054;52.054;8.600;2024-02-04T04:07:39;13.10;71.00
51029;DHT22;37054;52.054;8.600;2024-02-04T04:10:05;13.20;71.40
51029;DHT22;37054;52.054;8.600;2024-02-04T04:12:30;13.20;71.70
51029;DHT22;37054;52.054;8.600;2024-02-04T04:14:56;13.30;71.80
51029;DHT22;37054;52.054;8.600;2024-02-04T04:17:21;13.30;71.90
51029;DHT22;37054;52.054;8.600;2024-02-04T04:19:47;13.40;71.90
51029;DHT22;37054;52.054;8.600;2024-02-04T04:22:12;13.50;71.90
51029;DHT22;37054;52.054;8.600;2024-02-04T04:24:38;13.50;71.90
51029;DHT22;37054;52.054;8.600;2024-02-04T04:27:04;13.60;72.00
51029;DHT22;37054;52.054;8.600;2024-02-04T04:29:29;13.60;72.00
51029;DHT22;37054;52.054;8.600;2024-02-04T04:31:55;13.70;72.00
51029;DHT22;37054;52.054;8.600;2024-02-04T04:34:20;13.70;72.00
51029;DHT22;37054;52.054;8.600;2024-02-04T04:36:46;13.80;71.90
51029;DHT22;37054;52.054;8.600;2024-02-04T04:39:11;13.80;71.90
51029;DHT22;37054;52.054;8.600;2024-02-04T04:41:38;13.80;71.80
51029;DHT22;37054;52.054;8.600;2024-02-04T04:44:03;13.80;71.70
51029;DHT22;37054;52.054;8.600;2024-02-04T04:46:29;13.80;71.60
51029;DHT22;37054;52.054;8.600;2024-02-04T04:48:54;13.80;71.60
51029;DHT22;37054;52.054;8.600;2024-02-04T04:51:23;13.80;71.40
51029;DHT22;37054;52.054;8.600;2024-02-04T04:53:49;13.90;71.40
51029;DHT22;37054;52.054;8.600;2024-02-04T04:56:14;13.80;71.40
51029;DHT22;37054;52.054;8.600;2024-02-04T04:58:40;13.90;71.40
51029;DHT22;37054;52.054;8.600;2024-02-04T05:01:05;13.90;71.30
51029;DHT22;37054;52.054;8.600;2024-02-04T05:03:31;13.90;71.30
51029;DHT22;37054;52.054;8.600;2024-02-04T05:05:56;13.80;71.30
51029;DHT22;37054;52.054;8.600;2024-02-04T05:08:22;13.90;71.30
51029;DHT22;37054;52.054;8.600;2024-02-04T05:10:47;13.90;71.30
51029;DHT22;37054;52.054;8.600;2024-02-04T05:13:13;13.90;71.20
51029;DHT22;37054;52.054;8.600;2024-02-04T05:15:38;13.90;71.20
51029;DHT22;37054;52.054;8.600;2024-02-04T05:18:04;13.80;71.20
51029;DHT22;37054;52.054;8.600;2024-02-04T05:20:30;13.80;71.00
51029;DHT22;37054;52.054;8.600;2024-02-04T05:22:55;13.80;71.00
51029;DHT22;37054;52.054;8.600;2024-02-04T05:25:23;13.80;71.10
51029;DHT22;37054;52.054;8.600;2024-02-04T05:27:48;13.80;71.10
51029;DHT22;37054;52.054;8.600;2024-02-04T05:30:14;13.80;71.10
51029;DHT22;37054;52.054;8.600;2024-02-04T05:32:40;13.80;71.20
51029;DHT22;37054;52.054;8.600;2024-02-04T05:35:07;13.80;71.10
51029;DHT22;37054;52.054;8.600;2024-02-04T05:37:33;13.90;71.20
51029;DHT22;37054;52.054;8.600;2024-02-04T05:39:58;13.80;71.20
51029;DHT22;37054;52.054;8.600;2024-02-04T05:42:24;13.90;71.20
51029;DHT22;37054;52.054;8.600;2024-02-04T05:44:50;13.90;71.20
51029;DHT22;37054;52.054;8.600;2024-02-04T05:47:15;13.90;71.20
51029;DHT22;37054;52.054;8.600;2024-02-04T05:49:41;13.90;71.10
51029;DHT22;37054;52.054;8.600;2024-02-04T05:52:06;13.90;71.10
51029;DHT22;37054;52.054;8.600;2024-02-04T05:54:32;13.90;71.20
51029;DHT22;37054;52.054;8.600;2024-02-04T05:57:02;13.90;71.00
51029;DHT22;37054;52.054;8.600;2024-02-04T05:59:27;13.90;70.90
51029;DHT22;37054;52.054;8.600;2024-02-04T06:01:53;13.90;71.00
51029;DHT22;37054;52.054;8.600;2024-02-04T06:04:18;13.90;70.90
51029;DHT22;37054;52.054;8.600;2024-02-04T06:06:44;13.80;70.80
51029;DHT22;37054;52.054;8.600;2024-02-04T06:09:09;13.80;70.90
51029;DHT22;37054;52.054;8.600;2024-02-04T06:11:35;13.80;70.90
51029;DHT22;37054;52.054;8.600;2024-02-04T06:14:01;13.80;70.70
51029;DHT22;37054;52.054;8.600;2024-02-04T06:16:26;13.70;70.60
51029;DHT22;37054;52.054;8.600;2024-02-04T06:18:52;13.60;70.60
51029;DHT22;37054;52.054;8.600;2024-02-04T06:21:20;13.50;70.50
51029;DHT22;37054;52.054;8.600;2024-02-04T06:23:46;13.50;70.40
51029;DHT22;37054;52.054;8.600;2024-02-04T06:26:11;13.40;70.40
51029;DHT22;37054;52.054;8.600;2024-02-04T06:28:37;13.40;70.50
51029;DHT22;37054;52.054;8.600;2024-02-04T06:31:02;13.40;70.60
51029;DHT22;37054;52.054;8.600;2024-02-04T06:33:28;13.40;70.80
51029;DHT22;37054;52.054;8.600;2024-02-04T06:35:53;13.40;70.80
51029;DHT22;37054;52.054;8.600;2024-02-04T06:38:19;13.30;70.90
51029;DHT22;37054;52.054;8.600;2024-02-04T06:40:44;13.40;70.80
51029;DHT22;37054;52.054;8.600;2024-02-04T06:43:10;13.30;70.90
51029;DHT22;37054;52.054;8.600;2024-02-04T06:45:35;13.40;70.90
51029;DHT22;37054;52.054;8.600;2024-02-04T06:48:01;13.40;70.90
51029;DHT22;37054;52.054;8.600;2024-02-04T06:50:27;13.40;70.90
51029;DHT22;37054;52.054;8.600;2024-02-04T06:52:52;13.40;71.10
51029;DHT22;37054;52.054;8.600;2024-02-04T06:55:18;13.50;71.10
51029;DHT22;37054;52.054;8.600;2024-02-04T06:57:43;13.50;71.00
51029;DHT22;37054;52.054;8.600;2024-02-04T07:00:09;13.50;71.10
51029;DHT22;37054;52.054;8.600;2024-02-04T07:02:35;13.50;71.00
51029;DHT22;37054;52.054;8.600;2024-02-04T07:05:00;13.50;71.00
51029;DHT22;37054;52.054;8.600;2024-02-04T07:07:26;13.50;71.00
51029;DHT22;37054;52.054;8.600;2024-02-04T07:09:51;13.50;71.00
51029;DHT22;37054;52.054;8.600;2024-02-04T07:12:17;13.50;71.00
51029;DHT22;37054;52.054;8.600;2024-02-04T07:14:43;13.60;71.00
51029;DHT22;37054;52.054;8.600;2024-02-04T07:17:08;13.60;70.90
51029;DHT22;37054;52.054;8.600;2024-02-04T07:19:34;13.60;71.00
51029;DHT22;37054;52.054;8.600;2024-02-04T07:22:01;13.60;71.10
51029;DHT22;37054;52.054;8.600;2024-02-04T07:24:26;13.70;71.20
51029;DHT22;37054;52.054;8.600;2024-02-04T07:26:52;13.70;71.00
51029;DHT22;37054;52.054;8.600;2024-02-04T07:29:17;13.70;71.00
51029;DHT22;37054;52.054;8.600;2024-02-04T07:31:43;13.70;70.90
51029;DHT22;37054;52.054;8.600;2024-02-04T07:34:08;13.70;70.90
51029;DHT22;37054;52.054;8.600;2024-02-04T07:36:34;13.70;70.90
51029;DHT22;37054;52.054;8.600;2024-02-04T07:38:59;13.70;70.80
51029;DHT22;37054;52.054;8.600;2024-02-04T07:41:26;13.70;70.70
51029;DHT22;37054;52.054;8.600;2024-02-04T07:43:52;13.70;70.60
51029;DHT22;37054;52.054;8.600;2024-02-04T07:46:17;13.70;70.70
51029;DHT22;37054;52.054;8.600;2024-02-04T07:48:42;13.70;70.70
51029;DHT22;37054;52.054;8.600;2024-02-04T07:51:08;13.70;70.80
51029;DHT22;37054;52.054;8.600;2024-02-04T07:53:33;13.70;70.70
51029;DHT22;37054;52.054;8.600;2024-02-04T07:56:01;13.70;70.40
51029;DHT22;37054;52.054;8.600;2024-02-04T07:58:29;13.70;70.20
51029;DHT22;37054;52.054;8.600;2024-02-04T08:00:54;13.60;70.20
51029;DHT22;37054;52.054;8.600;2024-02-04T08:03:20;13.50;70.20
51029;DHT22;37054;52.054;8.600;2024-02-04T08:05:48;13.50;70.30
51029;DHT22;37054;52.054;8.600;2024-02-04T08:08:13;13.50;70.40
51029;DHT22;37054;52.054;8.600;2024-02-04T08:10:39;13.40;70.50
51029;DHT22;37054;52.054;8.600;2024-02-04T08:13:04;13.40;70.40
51029;DHT22;37054;52.054;8.600;2024-02-04T08:15:30;13.40;70.50
51029;DHT22;37054;52.054;8.600;2024-02-04T08:17:55;13.50;70.50
51029;DHT22;37054;52.054;8.600;2024-02-04T08:20:21;13.40;70.30
51029;DHT22;37054;52.054;8.600;2024-02-04T08:22:47;13.40;70.40
51029;DHT22;37054;52.054;8.600;2024-02-04T08:25:12;13.40;70.50
51029;DHT22;37054;52.054;8.600;2024-02-04T08:27:38;13.50;70.00
51029;DHT22;37054;52.054;8.600;2024-02-04T08:30:05;13.40;69.90
51029;DHT22;37054;52.054;8.600;2024-02-04T08:32:31;13.30;69.70
51029;DHT22;37054;52.054;8.600;2024-02-04T08:34:58;13.30;69.60
51029;DHT22;37054;52.054;8.600;2024-02-04T08:37:24;13.30;69.70
51029;DHT22;37054;52.054;8.600;2024-02-04T08:39:49;13.30;69.70
51029;DHT22;37054;52.054;8.600;2024-02-04T08:42:15;13.20;69.90
51029;DHT22;37054;52.054;8.600;2024-02-04T08:44:40;13.20;70.20
51029;DHT22;37054;52.054;8.600;2024-02-04T08:47:07;13.20;70.30
51029;DHT22;37054;52.054;8.600;2024-02-04T08:49:35;13.30;70.30
51029;DHT22;37054;52.054;8.600;2024-02-04T08:52:01;13.30;70.50
51029;DHT22;37054;52.054;8.600;2024-02-04T08:54:27;13.30;70.70
51029;DHT22;37054;52.054;8.600;2024-02-04T08:56:52;13.40;70.60
51029;DHT22;37054;52.054;8.600;2024-02-04T08:59:18;13.40;70.80
51029;DHT22;37054;52.054;8.600;2024-02-04T09:01:44;13.50;70.60
51029;DHT22;37054;52.054;8.600;2024-02-04T09:04:09;13.50;70.60
51029;DHT22;37054;52.054;8.600;2024-02-04T09:06:35;13.60;70.70
51029;DHT22;37054;52.054;8.600;2024-02-04T09:09:00;13.60;70.60
51029;DHT22;37054;52.054;8.600;2024-02-04T09:11:26;13.60;70.50
51029;DHT22;37054;52.054;8.600;2024-02-04T09:13:51;13.70;70.70
51029;DHT22;37054;52.054;8.600;2024-02-04T09:16:17;13.80;70.30
51029;DHT22;37054;52.054;8.600;2024-02-04T09:18:43;13.80;70.40
51029;DHT22;37054;52.054;8.600;2024-02-04T09:21:08;13.80;70.30
51029;DHT22;37054;52.054;8.600;2024-02-04T09:23:34;13.80;70.30
51029;DHT22;37054;52.054;8.600;2024-02-04T09:25:59;13.80;70.00
51029;DHT22;37054;52.054;8.600;2024-02-04T09:28:25;13.80;70.30
51029;DHT22;37054;52.054;8.600;2024-02-04T09:30:50;13.90;70.40
51029;DHT22;37054;52.054;8.600;2024-02-04T09:33:16;13.90;70.40
51029;DHT22;37054;52.054;8.600;2024-02-04T09:35:42;14.00;70.40
51029;DHT22;37054;52.054;8.600;2024-02-04T09:38:07;14.00;70.40
51029;DHT22;37054;52.054;8.600;2024-02-04T09:40:33;14.10;70.20
51029;DHT22;37054;52.054;8.600;2024-02-04T09:42:59;14.10;70.20
51029;DHT22;37054;52.054;8.600;2024-02-04T09:45:26;14.20;70.50
51029;DHT22;37054;52.054;8.600;2024-02-04T09:47:52;14.20;70.50
51029;DHT22;37054;52.054;8.600;2024-02-04T09:50:20;14.30;70.30
51029;DHT22;37054;52.054;8.600;2024-02-04T09:52:48;14.30;70.30
51029;DHT22;37054;52.054;8.600;2024-02-04T09:55:16;14.30;70.00
51029;DHT22;37054;52.054;8.600;2024-02-04T09:57:42;14.40;70.30
51029;DHT22;37054;52.054;8.600;2024-02-04T10:00:09;14.40;69.90
51029;DHT22;37054;52.054;8.600;2024-02-04T10:02:35;14.30;70.30
51029;DHT22;37054;52.054;8.600;2024-02-04T10:05:01;14.40;70.00
51029;DHT22;37054;52.054;8.600;2024-02-04T10:07:28;14.40;70.00
51029;DHT22;37054;52.054;8.600;2024-02-04T10:09:54;14.40;70.10
51029;DHT22;37054;52.054;8.600;2024-02-04T10:12:20;14.40;69.80
51029;DHT22;37054;52.054;8.600;2024-02-04T10:14:46;14.40;70.00
51029;DHT22;37054;52.054;8.600;2024-02-04T10:17:15;14.40;70.00
51029;DHT22;37054;52.054;8.600;2024-02-04T10:19:40;14.40;69.90
51029;DHT22;37054;52.054;8.600;2024-02-04T10:22:06;14.50;69.80
51029;DHT22;37054;52.054;8.600;2024-02-04T10:24:31;14.40;69.60
51029;DHT22;37054;52.054;8.600;2024-02-04T10:26:57;14.40;69.80
51029;DHT22;37054;52.054;8.600;2024-02-04T10:29:24;14.40;69.60
51029;DHT22;37054;52.054;8.600;2024-02-04T10:31:53;14.40;69.50
51029;DHT22;37054;52.054;8.600;2024-02-04T10:34:19;14.40;69.80
51029;DHT22;37054;52.054;8.600;2024-02-04T10:36:45;14.40;70.20
51029;DHT22;37054;52.054;8.600;2024-02-04T10:39:10;14.40;70.30
51029;DHT22;37054;52.054;8.600;2024-02-04T10:41:44;14.50;70.00
51029;DHT22;37054;52.054;8.600;2024-02-04T10:44:16;14.60;70.30
51029;DHT22;37054;52.054;8.600;2024-02-04T10:46:42;14.70;70.30
51029;DHT22;37054;52.054;8.600;2024-02-04T10:49:14;14.70;70.10
51029;DHT22;37054;52.054;8.600;2024-02-04T10:51:41;14.70;70.00
51029;DHT22;37054;52.054;8.600;2024-02-04T10:54:07;14.80;69.80
51029;DHT22;37054;52.054;8.600;2024-02-04T10:56:42;14.80;69.60
51029;DHT22;37054;52.054;8.600;2024-02-04T10:59:10;14.70;69.70
51029;DHT22;37054;52.054;8.600;2024-02-04T11:01:40;14.70;69.70
51029;DHT22;37054;52.054;8.600;2024-02-04T11:04:08;14.70;69.40
51029;DHT22;37054;52.054;8.600;2024-02-04T11:06:36;14.70;69.60
51029;DHT22;37054;52.054;8.600;2024-02-04T11:09:03;14.70;69.90
51029;DHT22;37054;52.054;8.600;2024-02-04T11:11:31;14.80;69.90
51029;DHT22;37054;52.054;8.600;2024-02-04T11:14:00;14.90;70.40
51029;DHT22;37054;52.054;8.600;2024-02-04T11:27:25;15.50;70.40
51029;DHT22;37054;52.054;8.600;2024-02-04T11:29:51;15.60;70.50
51029;DHT22;37054;52.054;8.600;2024-02-04T11:32:17;15.70;69.80
51029;DHT22;37054;52.054;8.600;2024-02-04T11:34:44;15.60;69.50
51029;DHT22;37054;52.054;8.600;2024-02-04T11:37:17;15.50;69.20
51029;DHT22;37054;52.054;8.600;2024-02-04T11:39:49;15.50;69.10
51029;DHT22;37054;52.054;8.600;2024-02-04T11:42:15;15.40;69.20
51029;DHT22;37054;52.054;8.600;2024-02-04T11:44:44;15.40;69.30
51029;DHT22;37054;52.054;8.600;2024-02-04T11:47:09;15.40;69.40
51029;DHT22;37054;52.054;8.600;2024-02-04T11:49:35;15.30;69.50
51029;DHT22;37054;52.054;8.600;2024-02-04T11:52:00;15.30;69.80
51029;DHT22;37054;52.054;8.600;2024-02-04T11:54:26;15.30;69.90
51029;DHT22;37054;52.054;8.600;2024-02-04T11:56:52;15.30;69.70
51029;DHT22;37054;52.054;8.600;2024-02-04T11:59:19;15.30;69.70
51029;DHT22;37054;52.054;8.600;2024-02-04T12:01:47;15.20;69.90
51029;DHT22;37054;52.054;8.600;2024-02-04T12:04:14;15.20;69.70
51029;DHT22;37054;52.054;8.600;2024-02-04T12:06:41;15.10;69.50
51029;DHT22;37054;52.054;8.600;2024-02-04T12:09:08;14.90;69.60
51029;DHT22;37054;52.054;8.600;2024-02-04T12:11:35;14.80;69.70
51029;DHT22;37054;52.054;8.600;2024-02-04T12:14:01;14.70;69.70
51029;DHT22;37054;52.054;8.600;2024-02-04T12:16:28;14.60;69.90
51029;DHT22;37054;52.054;8.600;2024-02-04T12:18:54;14.60;70.00
51029;DHT22;37054;52.054;8.600;2024-02-04T12:21:19;14.50;70.30
51029;DHT22;37054;52.054;8.600;2024-02-04T12:23:45;14.50;70.50
51029;DHT22;37054;52.054;8.600;2024-02-04T12:26:11;14.50;70.40
51029;DHT22;37054;52.054;8.600;2024-02-04T12:28:37;14.50;70.20
51029;DHT22;37054;52.054;8.600;2024-02-04T12:31:03;14.50;70.40
51029;DHT22;37054;52.054;8.600;2024-02-04T12:33:28;14.40;70.60
51029;DHT22;37054;52.054;8.600;2024-02-04T12:35:54;14.50;70.70
51029;DHT22;37054;52.054;8.600;2024-02-04T12:38:21;14.50;70.60
51029;DHT22;37054;52.054;8.600;2024-02-04T12:40:47;14.40;70.50
51029;DHT22;37054;52.054;8.600;2024-02-04T12:43:12;14.40;70.70
51029;DHT22;37054;52.054;8.600;2024-02-04T12:45:38;14.40;70.80
51029;DHT22;37054;52.054;8.600;2024-02-04T12:48:04;14.40;70.90
51029;DHT22;37054;52.054;8.600;2024-02-04T12:50:29;14.40;70.90
51029;DHT22;37054;52.054;8.600;2024-02-04T12:53:21;14.30;71.10
51029;DHT22;37054;52.054;8.600;2024-02-04T12:55:47;14.30;71.40
51029;DHT22;37054;52.054;8.600;2024-02-04T12:58:13;14.40;71.40
51029;DHT22;37054;52.054;8.600;2024-02-04T13:00:40;14.30;71.50
51029;DHT22;37054;52.054;8.600;2024-02-04T13:03:07;14.40;71.50
51029;DHT22;37054;52.054;8.600;2024-02-04T13:05:39;14.40;71.60
51029;DHT22;37054;52.054;8.600;2024-02-04T13:08:05;14.40;71.80
51029;DHT22;37054;52.054;8.600;2024-02-04T13:10:32;14.50;71.80
51029;DHT22;37054;52.054;8.600;2024-02-04T13:13:07;14.60;71.80
51029;DHT22;37054;52.054;8.600;2024-02-04T13:15:39;14.60;71.80
51029;DHT22;37054;52.054;8.600;2024-02-04T13:18:04;14.60;71.60
51029;DHT22;37054;52.054;8.600;2024-02-04T13:20:30;14.60;71.50
51029;DHT22;37054;52.054;8.600;2024-02-04T13:22:56;14.60;71.40
51029;DHT22;37054;52.054;8.600;2024-02-04T13:25:23;14.60;71.30
51029;DHT22;37054;52.054;8.600;2024-02-04T13:27:51;14.60;71.30
51029;DHT22;37054;52.054;8.600;2024-02-04T13:30:17;14.60;71.10
51029;DHT22;37054;52.054;8.600;2024-02-04T13:32:44;14.50;71.00
51029;DHT22;37054;52.054;8.600;2024-02-04T13:35:10;14.50;71.20
51029;DHT22;37054;52.054;8.600;2024-02-04T13:37:40;14.50;71.10
51029;DHT22;37054;52.054;8.600;2024-02-04T13:40:06;14.40;71.10
51029;DHT22;37054;52.054;8.600;2024-02-04T13:42:34;14.40;71.30
51029;DHT22;37054;52.054;8.600;2024-02-04T13:45:00;14.40;71.40
51029;DHT22;37054;52.054;8.600;2024-02-04T13:47:27;14.40;71.00
51029;DHT22;37054;52.054;8.600;2024-02-04T13:49:52;14.30;71.10
51029;DHT22;37054;52.054;8.600;2024-02-04T13:52:18;14.30;71.20
51029;DHT22;37054;52.054;8.600;2024-02-04T13:54:44;14.30;71.40
51029;DHT22;37054;52.054;8.600;2024-02-04T13:57:09;14.30;71.40
51029;DHT22;37054;52.054;8.600;2024-02-04T13:59:35;14.30;71.30
51029;DHT22;37054;52.054;8.600;2024-02-04T14:02:00;14.30;71.40
51029;DHT22;37054;52.054;8.600;2024-02-04T14:04:27;14.30;71.40
51029;DHT22;37054;52.054;8.600;2024-02-04T14:06:52;14.30;71.30
51029;DHT22;37054;52.054;8.600;2024-02-04T14:09:18;14.30;71.20
51029;DHT22;37054;52.054;8.600;2024-02-04T14:11:43;14.20;71.20
51029;DHT22;37054;52.054;8.600;2024-02-04T14:14:09;14.20;71.10
51029;DHT22;37054;52.054;8.600;2024-02-04T14:16:34;14.10;71.20
51029;DHT22;37054;52.054;8.600;2024-02-04T14:19:00;14.10;71.10
51029;DHT22;37054;52.054;8.600;2024-02-04T14:21:25;14.00;71.10
51029;DHT22;37054;52.054;8.600;2024-02-04T14:23:51;14.00;71.10
51029;DHT22;37054;52.054;8.600;2024-02-04T14:29:38;14.00;71.10
51029;DHT22;37054;52.054;8.600;2024-02-04T14:32:04;13.90;71.20
51029;DHT22;37054;52.054;8.600;2024-02-04T14:34:30;13.80;71.10
51029;DHT22;37054;52.054;8.600;2024-02-04T14:36:56;13.90;71.00
51029;DHT22;37054;52.054;8.600;2024-02-04T14:39:21;13.80;71.10
51029;DHT22;37054;52.054;8.600;2024-02-04T14:41:47;13.80;71.10
51029;DHT22;37054;52.054;8.600;2024-02-04T14:44:12;13.80;70.90
51029;DHT22;37054;52.054;8.600;2024-02-04T14:46:38;13.80;70.90
51029;DHT22;37054;52.054;8.600;2024-02-04T14:49:04;13.80;70.90
51029;DHT22;37054;52.054;8.600;2024-02-04T14:51:30;13.80;71.00
51029;DHT22;37054;52.054;8.600;2024-02-04T14:53:58;13.80;70.80
51029;DHT22;37054;52.054;8.600;2024-02-04T14:56:24;13.80;70.80
51029;DHT22;37054;52.054;8.600;2024-02-04T14:58:50;13.80;70.90
51029;DHT22;37054;52.054;8.600;2024-02-04T15:01:15;13.80;70.90
51029;DHT22;37054;52.054;8.600;2024-02-04T15:03:41;13.80;70.90
51029;DHT22;37054;52.054;8.600;2024-02-04T15:06:07;13.80;70.80
51029;DHT22;37054;52.054;8.600;2024-02-04T15:08:32;13.80;70.90
51029;DHT22;37054;52.054;8.600;2024-02-04T15:10:58;13.80;70.90
51029;DHT22;37054;52.054;8.600;2024-02-04T15:13:24;13.80;70.80
51029;DHT22;37054;52.054;8.600;2024-02-04T15:15:49;13.70;70.80
51029;DHT22;37054;52.054;8.600;2024-02-04T15:18:15;13.70;70.80
51029;DHT22;37054;52.054;8.600;2024-02-04T15:20:41;13.70;70.90
51029;DHT22;37054;52.054;8.600;2024-02-04T15:23:07;13.70;71.00
51029;DHT22;37054;52.054;8.600;2024-02-04T15:25:33;13.80;71.00
51029;DHT22;37054;52.054;8.600;2024-02-04T15:27:59;13.70;70.90
51029;DHT22;37054;52.054;8.600;2024-02-04T15:30:25;13.70;71.00
51029;DHT22;37054;52.054;8.600;2024-02-04T15:32:50;13.70;71.00
51029;DHT22;37054;52.054;8.600;2024-02-04T15:35:18;13.80;71.00
51029;DHT22;37054;52.054;8.600;2024-02-04T15:37:43;13.70;71.00
51029;DHT22;37054;52.054;8.600;2024-02-04T15:40:11;13.70;71.00